Time;durP1;ratioP1;P1;durP2;ratioP2;P2;SDS_P1;SDS_P2;PMS_P1;PMS_P2;Temp;Humidity;BMP_temperature;BMP_pressure;BME280_temperature;BME280_humidity;BME280_pressure;Samples;Min_cycle;Max_cycle;Signal;HPM_P1;HPM_P2
2023/03/12 00:00:40;;;;;;;16.23;8.77;;;0.50;99.90;;;;;;5069457;28;20453;-83
2023/03/12 00:03:06;;;;;;;11.93;6.77;;;0.50;99.90;;;;;;5066589;28;20085;-84
2023/03/12 00:05:32;;;;;;;12.03;6.40;;;0.50;99.90;;;;;;5069448;28;20032;-83
2023/03/12 00:07:58;;;;;;;15.10;6.07;;;0.60;99.90;;;;;;5065746;28;20114;-83
2023/03/12 00:10:25;;;;;;;13.40;5.80;;;0.60;99.90;;;;;;5068984;28;20034;-83
2023/03/12 00:12:51;;;;;;;8.30;4.87;;;0.60;99.90;;;;;;5068381;28;20509;-84
2023/03/12 00:15:17;;;;;;;15.63;6.07;;;0.60;99.90;;;;;;5068519;28;20040;-84
2023/03/12 00:17:43;;;;;;;8.87;5.20;;;0.50;99.90;;;;;;5068028;28;20390;-83
2023/03/12 00:20:09;;;;;;;10.00;5.47;;;0.50;99.90;;;;;;5068073;28;20512;-84
2023/03/12 00:22:35;;;;;;;11.67;5.67;;;0.40;99.90;;;;;;5068363;28;20365;-83
2023/03/12 00:25:01;;;;;;;9.87;5.03;;;0.40;99.90;;;;;;5068590;28;20047;-84
2023/03/12 00:27:27;;;;;;;7.77;4.77;;;0.40;99.90;;;;;;5067412;28;20112;-84
2023/03/12 00:29:52;;;;;;;11.93;5.23;;;0.40;99.90;;;;;;5068591;28;20381;-84
2023/03/12 00:32:18;;;;;;;8.83;5.13;;;0.40;99.90;;;;;;5068097;28;20767;-83
2023/03/12 00:34:53;;;;;;;9.37;5.33;;;0.40;99.90;;;;;;5068771;28;20393;-84
2023/03/12 00:37:20;;;;;;;11.55;5.22;;;0.30;99.90;;;;;;5067311;28;20099;-84
2023/03/12 00:39:45;;;;;;;10.13;5.43;;;0.30;99.90;;;;;;5068216;28;20035;-83
2023/03/12 00:42:11;;;;;;;11.93;5.80;;;0.30;99.90;;;;;;5068087;28;21007;-83
2023/03/12 00:44:36;;;;;;;12.27;5.60;;;0.20;99.90;;;;;;5066802;28;20017;-84
2023/03/12 00:47:02;;;;;;;13.10;5.20;;;0.20;99.90;;;;;;5067666;28;20171;-83
2023/03/12 00:49:28;;;;;;;10.70;4.93;;;0.20;99.90;;;;;;5067314;28;20129;-83
2023/03/12 00:51:53;;;;;;;8.57;5.53;;;0.10;99.90;;;;;;5066583;28;20058;-83
2023/03/12 00:54:19;;;;;;;7.07;4.97;;;0.00;99.90;;;;;;5067235;28;20024;-83
2023/03/12 00:56:45;;;;;;;9.50;4.63;;;-0.10;99.90;;;;;;5066547;28;20134;-84
2023/03/12 00:59:12;;;;;;;11.77;5.53;;;-0.10;99.90;;;;;;5067701;28;20384;-84
2023/03/12 01:01:38;;;;;;;10.70;5.50;;;-0.10;99.90;;;;;;5068312;28;20100;-84
2023/03/12 01:04:03;;;;;;;11.87;5.57;;;-0.20;99.90;;;;;;5067324;28;20511;-84
2023/03/12 01:06:29;;;;;;;9.57;5.83;;;-0.20;99.90;;;;;;5067644;28;20110;-84
2023/03/12 01:08:54;;;;;;;12.13;6.00;;;-0.30;99.90;;;;;;5066855;28;20052;-83
2023/03/12 01:11:21;;;;;;;9.33;5.77;;;-0.30;99.90;;;;;;5067915;28;20020;-83
2023/03/12 01:13:47;;;;;;;13.90;6.70;;;-0.30;99.90;;;;;;5067696;28;20123;-84
2023/03/12 01:16:12;;;;;;;13.17;6.20;;;-0.30;99.90;;;;;;5066705;28;20030;-83
2023/03/12 01:18:38;;;;;;;11.97;6.10;;;-0.30;99.90;;;;;;5067052;28;20052;-84
2023/03/12 01:21:04;;;;;;;14.03;6.87;;;-0.40;99.90;;;;;;5067982;28;20137;-84
2023/03/12 01:23:29;;;;;;;12.20;6.50;;;-0.40;99.90;;;;;;5065557;28;20055;-83
2023/03/12 01:25:55;;;;;;;12.57;5.67;;;-0.40;99.90;;;;;;5066762;28;20033;-84
2023/03/12 01:28:24;;;;;;;12.73;6.80;;;-0.40;99.90;;;;;;5066970;28;20028;-83
2023/03/12 01:30:50;;;;;;;13.20;6.57;;;-0.40;99.90;;;;;;5100525;28;20024;-83
2023/03/12 01:33:17;;;;;;;14.47;7.13;;;-0.40;99.90;;;;;;5066130;28;20083;-84
2023/03/12 01:35:43;;;;;;;15.40;6.30;;;-0.40;99.90;;;;;;5067347;28;20020;-83
2023/03/12 01:38:15;;;;;;;13.77;7.07;;;-0.30;99.90;;;;;;5066260;28;20071;-83
2023/03/12 01:40:42;;;;;;;12.80;7.30;;;-0.30;99.90;;;;;;5068020;28;20030;-83
2023/03/12 01:43:30;;;;;;;15.70;7.43;;;-0.20;99.90;;;;;;5066640;28;20108;-84
2023/03/12 01:46:20;;;;;;;11.50;6.90;;;-0.20;99.90;;;;;;5066949;28;20032;-83
2023/03/12 01:48:59;;;;;;;13.10;6.70;;;-0.10;99.90;;;;;;5067037;28;20024;-83
2023/03/12 01:51:31;;;;;;;12.77;6.77;;;-0.10;99.90;;;;;;5067754;28;20056;-84
2023/03/12 01:53:59;;;;;;;12.20;6.63;;;0.00;99.90;;;;;;5065504;28;20032;-83
2023/03/12 01:56:29;;;;;;;12.23;6.50;;;0.10;99.90;;;;;;5067029;28;20108;-83
2023/03/12 01:58:58;;;;;;;13.87;6.40;;;0.10;99.90;;;;;;5065637;28;20097;-83
2023/03/12 02:01:24;;;;;;;10.73;6.30;;;0.20;99.90;;;;;;5067172;28;20052;-83
2023/03/12 02:03:52;;;;;;;11.37;6.37;;;0.20;99.90;;;;;;5066553;28;20698;-83
2023/03/12 02:06:24;;;;;;;11.70;6.63;;;0.20;99.90;;;;;;5071400;28;20028;-83
2023/03/12 02:08:50;;;;;;;13.33;6.67;;;0.20;99.90;;;;;;5069380;28;20044;-83
2023/03/12 02:11:15;;;;;;;12.50;6.27;;;0.30;99.90;;;;;;5070404;28;20028;-83
2023/03/12 02:13:41;;;;;;;10.47;5.73;;;0.20;99.90;;;;;;5070680;28;20033;-83
2023/03/12 02:16:08;;;;;;;12.47;6.53;;;0.20;99.90;;;;;;5071607;28;20036;-83
2023/03/12 02:18:34;;;;;;;11.63;5.90;;;0.30;99.90;;;;;;5069566;28;20044;-83
2023/03/12 02:21:14;;;;;;;12.20;6.17;;;0.30;99.90;;;;;;5071040;28;20040;-83
2023/03/12 02:24:04;;;;;;;11.40;6.27;;;0.20;99.90;;;;;;5070559;28;20379;-84
2023/03/12 02:26:30;;;;;;;11.90;5.50;;;0.20;99.90;;;;;;5070536;28;20033;-83
2023/03/12 02:28:57;;;;;;;9.20;5.40;;;0.30;99.90;;;;;;5068918;28;20564;-83
2023/03/12 02:31:28;;;;;;;10.17;5.73;;;0.20;99.90;;;;;;5071154;28;20096;-83
2023/03/12 02:33:54;;;;;;;15.77;5.80;;;0.20;99.90;;;;;;5070294;28;20031;-83
2023/03/12 02:36:21;;;;;;;12.50;5.13;;;0.20;99.90;;;;;;5071071;28;20040;-83
2023/03/12 02:38:48;;;;;;;10.90;5.03;;;0.20;99.90;;;;;;5069407;28;20079;-83
2023/03/12 02:41:24;;;;;;;8.60;5.27;;;0.10;99.90;;;;;;5071015;28;20031;-83
2023/03/12 02:44:16;;;;;;;11.63;4.70;;;0.10;99.90;;;;;;5101815;27;20066;-84
2023/03/12 02:46:45;;;;;;;8.33;4.93;;;0.10;99.90;;;;;;5069926;28;20100;-83
2023/03/12 02:49:12;;;;;;;6.40;3.73;;;0.00;99.90;;;;;;5069206;28;20074;-83
2023/03/12 02:51:39;;;;;;;10.47;4.50;;;0.00;99.90;;;;;;5070160;28;20031;-84
2023/03/12 02:54:05;;;;;;;10.90;4.43;;;0.00;99.90;;;;;;5069816;28;20115;-83
2023/03/12 02:56:31;;;;;;;10.87;4.23;;;0.00;99.90;;;;;;5069992;28;20024;-82
2023/03/12 02:58:56;;;;;;;12.43;5.80;;;-0.10;99.90;;;;;;5068419;28;20370;-83
2023/03/12 03:01:22;;;;;;;6.57;3.93;;;-0.10;99.90;;;;;;5068688;28;20028;-83
2023/03/12 03:03:48;;;;;;;7.03;3.77;;;-0.10;99.90;;;;;;5069447;28;20051;-83
2023/03/12 03:06:14;;;;;;;6.13;3.37;;;-0.10;99.90;;;;;;5070436;28;20028;-83
2023/03/12 03:08:39;;;;;;;7.37;4.33;;;-0.10;99.90;;;;;;5069517;28;20037;-83
2023/03/12 03:11:05;;;;;;;7.13;3.90;;;-0.10;99.90;;;;;;5102793;27;20054;-83
2023/03/12 03:13:32;;;;;;;8.03;4.00;;;-0.10;99.90;;;;;;5069007;28;20032;-83
2023/03/12 03:15:58;;;;;;;10.30;4.20;;;-0.10;99.90;;;;;;5069901;28;20494;-83
2023/03/12 03:18:24;;;;;;;13.27;5.23;;;0.00;99.90;;;;;;5068463;28;20063;-83
2023/03/12 03:21:13;;;;;;;9.47;5.13;;;0.00;99.90;;;;;;5070636;28;20072;-83
2023/03/12 03:23:38;;;;;;;11.63;5.73;;;0.00;99.90;;;;;;5069151;28;20032;-83
2023/03/12 03:26:04;;;;;;;10.67;5.20;;;0.00;99.90;;;;;;5068072;28;20343;-84
2023/03/12 03:28:30;;;;;;;7.33;4.17;;;0.00;99.90;;;;;;5069751;28;20040;-83
2023/03/12 03:30:59;;;;;;;10.93;4.70;;;0.00;99.90;;;;;;5070024;28;20117;-83
2023/03/12 03:33:25;;;;;;;9.17;4.93;;;0.00;99.90;;;;;;5069430;28;20454;-83
2023/03/12 03:35:50;;;;;;;6.80;4.37;;;0.10;99.90;;;;;;5069917;28;20043;-83
2023/03/12 03:38:16;;;;;;;7.00;4.30;;;0.10;99.90;;;;;;5069741;28;20134;-83
2023/03/12 03:40:42;;;;;;;7.13;4.83;;;0.10;99.90;;;;;;5070699;28;20032;-84
2023/03/12 03:43:08;;;;;;;16.53;6.50;;;0.20;99.90;;;;;;5069273;28;20021;-83
2023/03/12 03:45:33;;;;;;;8.53;5.43;;;0.20;99.90;;;;;;5069290;28;20670;-84
2023/03/12 03:47:59;;;;;;;8.07;4.27;;;0.20;99.90;;;;;;5067599;28;20036;-83
2023/03/12 03:50:25;;;;;;;9.17;4.00;;;0.30;99.90;;;;;;5070000;28;20028;-83
2023/03/12 03:52:50;;;;;;;6.60;4.03;;;0.30;99.90;;;;;;5069532;28;20032;-83
2023/03/12 03:55:16;;;;;;;7.00;4.53;;;0.30;99.90;;;;;;5068825;28;20028;-83
2023/03/12 03:57:41;;;;;;;12.00;4.40;;;0.30;99.90;;;;;;5067797;28;20040;-84
2023/03/12 04:00:08;;;;;;;8.43;4.70;;;0.30;99.90;;;;;;5070262;28;20029;-84
2023/03/12 04:02:34;;;;;;;6.43;3.93;;;0.40;99.90;;;;;;5068812;28;20066;-82
2023/03/12 04:05:00;;;;;;;8.17;4.67;;;0.40;99.90;;;;;;5067887;28;20032;-84
2023/03/12 04:07:27;;;;;;;5.33;3.90;;;0.40;99.90;;;;;;5069207;28;20056;-83
2023/03/12 04:09:53;;;;;;;6.17;4.00;;;0.40;99.90;;;;;;5069094;28;20105;-84
2023/03/12 04:12:19;;;;;;;8.23;4.50;;;0.40;99.90;;;;;;5069308;28;20036;-83
2023/03/12 04:14:44;;;;;;;8.77;4.40;;;0.40;99.90;;;;;;5099891;27;20185;-83
2023/03/12 04:17:10;;;;;;;6.77;4.83;;;0.40;99.90;;;;;;5068078;28;20036;-83
2023/03/12 04:19:36;;;;;;;6.43;4.27;;;0.40;99.90;;;;;;5069164;28;20275;-84
2023/03/12 04:22:02;;;;;;;8.53;4.60;;;0.40;99.90;;;;;;5068640;28;20461;-83
2023/03/12 04:24:27;;;;;;;9.07;4.43;;;0.50;99.90;;;;;;5068291;28;20036;-83
2023/03/12 04:26:53;;;;;;;6.93;4.17;;;0.50;99.90;;;;;;5067920;28;20037;-83
2023/03/12 04:29:19;;;;;;;12.00;4.80;;;0.50;99.90;;;;;;5068339;28;20020;-83
2023/03/12 04:31:45;;;;;;;8.13;4.93;;;0.50;99.90;;;;;;5068093;28;20036;-83
2023/03/12 04:34:11;;;;;;;8.70;5.00;;;0.50;99.90;;;;;;5068314;28;20032;-83
2023/03/12 04:36:37;;;;;;;11.93;5.33;;;0.60;99.90;;;;;;5068818;28;20025;-83
2023/03/12 04:39:06;;;;;;;8.03;5.10;;;0.60;99.90;;;;;;5067564;28;20040;-83
2023/03/12 04:41:32;;;;;;;8.67;5.67;;;0.60;99.90;;;;;;5067734;28;20565;-83
2023/03/12 04:43:57;;;;;;;12.70;6.37;;;0.60;99.90;;;;;;5067674;28;20028;-83
2023/03/12 04:46:23;;;;;;;9.17;5.00;;;0.60;99.90;;;;;;5068583;28;20482;-83
2023/03/12 04:48:49;;;;;;;9.33;5.70;;;0.70;99.90;;;;;;5067902;28;20029;-83
2023/03/12 04:51:15;;;;;;;8.47;5.67;;;0.70;99.90;;;;;;5068157;28;20516;-83
2023/03/12 04:53:40;;;;;;;9.83;6.00;;;0.70;99.90;;;;;;5067881;28;20043;-84
2023/03/12 04:56:06;;;;;;;9.03;5.53;;;0.70;99.90;;;;;;5067519;28;20056;-84
2023/03/12 04:58:32;;;;;;;8.53;6.40;;;0.70;99.90;;;;;;5067670;28;20071;-83
2023/03/12 05:00:57;;;;;;;11.10;5.83;;;0.80;99.90;;;;;;5067691;28;20371;-83
2023/03/12 05:03:23;;;;;;;8.57;5.93;;;0.80;99.90;;;;;;5068256;28;20883;-83
2023/03/12 05:05:48;;;;;;;10.90;6.50;;;0.80;99.90;;;;;;5068403;28;20058;-84
2023/03/12 05:08:14;;;;;;;8.37;5.80;;;0.80;99.90;;;;;;5067504;28;20099;-83
2023/03/12 05:10:39;;;;;;;11.43;6.63;;;0.80;99.90;;;;;;5068220;28;20039;-83
2023/03/12 05:13:19;;;;;;;10.20;6.70;;;0.80;99.90;;;;;;5066328;28;20467;-83
2023/03/12 05:15:49;;;;;;;13.23;7.03;;;0.80;99.90;;;;;;5065439;28;20107;-83
2023/03/12 05:18:15;;;;;;;10.33;7.10;;;0.90;99.90;;;;;;5067136;28;20056;-83
2023/03/12 05:20:41;;;;;;;9.77;6.80;;;0.90;99.90;;;;;;5067535;28;20040;-83
2023/03/12 05:23:07;;;;;;;10.37;7.50;;;0.90;99.90;;;;;;5066666;28;20045;-84
2023/03/12 05:25:33;;;;;;;10.70;7.30;;;0.90;99.90;;;;;;5068056;28;20656;-83
2023/03/12 05:27:58;;;;;;;12.30;7.20;;;0.90;99.90;;;;;;5067387;28;20020;-84
2023/03/12 05:30:24;;;;;;;11.30;7.33;;;0.90;99.90;;;;;;5066956;28;20127;-84
2023/03/12 05:32:49;;;;;;;11.43;7.63;;;0.90;99.90;;;;;;5066405;28;20043;-84
2023/03/12 05:35:15;;;;;;;10.33;7.30;;;0.90;99.90;;;;;;5066072;28;20150;-83
2023/03/12 05:37:41;;;;;;;12.83;7.60;;;1.00;99.90;;;;;;5066946;28;20382;-83
2023/03/12 05:40:10;;;;;;;10.23;7.43;;;1.00;99.90;;;;;;5070236;28;20032;-83
2023/03/12 05:42:36;;;;;;;9.80;7.67;;;1.00;99.90;;;;;;5071053;28;20039;-83
2023/03/12 05:45:02;;;;;;;11.43;7.17;;;1.00;99.90;;;;;;5071506;28;20029;-83
2023/03/12 05:47:28;;;;;;;11.33;7.43;;;1.10;99.90;;;;;;5071363;28;20040;-83
2023/03/12 05:49:53;;;;;;;10.13;6.93;;;1.10;99.90;;;;;;5071353;28;20029;-83
2023/03/12 05:52:19;;;;;;;11.43;7.40;;;1.10;99.90;;;;;;5070480;28;20102;-84
2023/03/12 05:54:45;;;;;;;9.30;5.73;;;1.10;99.90;;;;;;5071565;28;20447;-84
2023/03/12 05:57:10;;;;;;;9.80;6.30;;;1.10;99.90;;;;;;5070890;28;20036;-84
2023/03/12 05:59:36;;;;;;;9.27;6.13;;;1.20;99.90;;;;;;5071289;28;20036;-83
2023/03/12 06:02:01;;;;;;;10.13;7.57;;;1.20;99.90;;;;;;5070714;28;20031;-83
2023/03/12 06:04:27;;;;;;;10.37;7.33;;;1.20;99.90;;;;;;5070835;28;20036;-83
2023/03/12 06:06:53;;;;;;;11.83;7.63;;;1.30;99.90;;;;;;5071571;28;20033;-84
2023/03/12 06:09:18;;;;;;;11.43;7.50;;;1.30;99.90;;;;;;5069919;28;20143;-84
2023/03/12 06:11:44;;;;;;;12.50;8.17;;;1.30;99.90;;;;;;5070519;28;20028;-84
2023/03/12 06:14:09;;;;;;;14.20;9.20;;;1.40;99.90;;;;;;5071159;28;20029;-84
2023/03/12 06:16:35;;;;;;;12.67;8.67;;;1.40;99.90;;;;;;5070911;28;20036;-84
2023/03/12 06:19:02;;;;;;;11.07;7.87;;;1.50;99.90;;;;;;5069258;28;20060;-83
2023/03/12 06:21:31;;;;;;;13.77;8.07;;;1.60;99.90;;;;;;5072218;28;20029;-82
2023/03/12 06:23:57;;;;;;;10.97;7.47;;;1.60;99.90;;;;;;5073008;28;20024;-84
2023/03/12 06:26:22;;;;;;;10.97;7.50;;;1.70;99.90;;;;;;5071881;28;20046;-84
2023/03/12 06:28:49;;;;;;;11.40;7.50;;;1.70;99.90;;;;;;5071098;28;20119;-83
2023/03/12 06:31:16;;;;;;;11.63;7.40;;;1.80;99.90;;;;;;5074026;28;20028;-84
2023/03/12 06:33:42;;;;;;;12.10;7.30;;;1.80;99.90;;;;;;5074731;28;20028;-84
2023/03/12 06:36:09;;;;;;;9.73;7.03;;;1.90;99.90;;;;;;5072890;28;20028;-84
2023/03/12 06:38:36;;;;;;;12.40;6.80;;;2.00;99.90;;;;;;5073116;28;20036;-84
2023/03/12 06:41:11;;;;;;;9.80;6.87;;;2.10;99.90;;;;;;5072573;28;20103;-83
2023/03/12 06:43:38;;;;;;;8.77;6.57;;;2.20;99.90;;;;;;5070785;28;20462;-84
2023/03/12 06:46:05;;;;;;;10.27;6.47;;;2.20;99.90;;;;;;5070834;28;20065;-83
2023/03/12 06:48:32;;;;;;;9.87;7.13;;;2.20;99.90;;;;;;5070137;28;20035;-83
2023/03/12 06:50:58;;;;;;;9.20;6.40;;;2.30;99.90;;;;;;5070515;28;20783;-84
2023/03/12 06:53:24;;;;;;;10.83;6.40;;;2.30;99.90;;;;;;5069963;28;20031;-84
2023/03/12 06:55:50;;;;;;;8.77;6.30;;;2.30;99.90;;;;;;5071157;28;20031;-84
2023/03/12 06:58:17;;;;;;;10.57;6.73;;;2.40;99.90;;;;;;5070040;28;20043;-84
2023/03/12 07:00:42;;;;;;;9.33;6.10;;;2.40;99.90;;;;;;5069528;28;20128;-84
2023/03/12 07:03:08;;;;;;;10.23;6.00;;;2.50;99.90;;;;;;5067836;28;20032;-83
2023/03/12 07:05:34;;;;;;;9.33;6.50;;;2.50;99.90;;;;;;5078156;28;20024;-96
2023/03/12 07:07:59;;;;;;;9.50;6.20;;;2.60;99.90;;;;;;5077228;28;20036;-83
2023/03/12 07:10:28;;;;;;;8.90;5.47;;;2.60;99.90;;;;;;5074205;28;20029;-92
2023/03/12 07:12:54;;;;;;;9.17;5.83;;;2.70;99.90;;;;;;5070541;28;20032;-90
2023/03/12 07:15:20;;;;;;;8.60;5.50;;;2.70;99.90;;;;;;5070558;28;20024;-90
2023/03/12 07:17:46;;;;;;;7.67;5.03;;;2.70;99.90;;;;;;5062020;28;20057;-90
2023/03/12 07:20:12;;;;;;;8.17;4.60;;;2.70;99.90;;;;;;5065048;28;20476;-91
2023/03/12 07:22:38;;;;;;;7.37;4.57;;;2.80;99.90;;;;;;5066878;28;20482;-91
2023/03/12 07:25:04;;;;;;;7.43;4.47;;;2.90;99.90;;;;;;5066617;28;20401;-92
2023/03/12 07:27:30;;;;;;;6.67;4.30;;;3.00;99.90;;;;;;5066562;28;20077;-90
2023/03/12 07:29:55;;;;;;;6.80;4.30;;;3.00;99.90;;;;;;5063830;28;20068;-93
2023/03/12 07:32:21;;;;;;;6.53;4.43;;;3.10;99.90;;;;;;5063077;28;20028;-84
2023/03/12 07:34:46;;;;;;;7.57;4.30;;;3.20;99.90;;;;;;5063095;28;20044;-86
2023/03/12 07:37:12;;;;;;;6.10;3.80;;;3.30;99.90;;;;;;5063539;28;20036;-84
2023/03/12 07:39:38;;;;;;;6.93;4.53;;;3.40;99.90;;;;;;5062085;28;20117;-85
2023/03/12 07:42:04;;;;;;;7.07;4.20;;;3.50;99.90;;;;;;5063283;28;20040;-84
2023/03/12 07:44:29;;;;;;;6.43;4.10;;;3.70;99.90;;;;;;5064733;28;20035;-84
2023/03/12 07:46:55;;;;;;;6.53;3.87;;;3.70;99.90;;;;;;5062447;28;20106;-83
2023/03/12 07:49:21;;;;;;;6.67;4.03;;;3.80;99.90;;;;;;5097484;27;20032;-84
2023/03/12 07:51:47;;;;;;;8.10;3.83;;;3.80;99.90;;;;;;5064570;28;20035;-83
2023/03/12 07:54:16;;;;;;;6.97;3.70;;;3.80;99.90;;;;;;5066103;28;20124;-84
2023/03/12 07:56:41;;;;;;;7.00;4.10;;;3.90;99.90;;;;;;5066243;28;20054;-84
2023/03/12 07:59:07;;;;;;;6.07;3.43;;;3.90;99.90;;;;;;5062967;28;20040;-83
2023/03/12 08:01:32;;;;;;;5.07;3.60;;;3.90;99.90;;;;;;5062242;28;20083;-82
2023/03/12 08:03:58;;;;;;;4.87;3.27;;;3.90;99.90;;;;;;5064970;28;20036;-83
2023/03/12 08:06:24;;;;;;;5.20;3.73;;;3.90;99.90;;;;;;5064676;28;20039;-83
2023/03/12 08:08:52;;;;;;;4.60;3.43;;;3.90;99.90;;;;;;5065452;28;20073;-82
2023/03/12 08:11:18;;;;;;;6.33;3.77;;;3.90;99.90;;;;;;5065071;28;20059;-80
2023/03/12 08:13:44;;;;;;;5.57;3.60;;;4.00;99.90;;;;;;5058617;28;20225;-82
2023/03/12 08:16:17;;;;;;;4.93;3.27;;;4.00;99.90;;;;;;5054981;28;20591;-82
2023/03/12 08:18:42;;;;;;;6.60;3.20;;;4.10;99.90;;;;;;5054802;28;20145;-82
2023/03/12 08:21:08;;;;;;;6.33;3.17;;;4.10;99.90;;;;;;5055440;28;20079;-82
2023/03/12 08:23:34;;;;;;;6.63;3.33;;;4.10;99.90;;;;;;5056707;28;20173;-84
2023/03/12 08:26:00;;;;;;;5.37;3.50;;;4.10;99.90;;;;;;5053213;28;20024;-83
2023/03/12 08:28:25;;;;;;;4.50;3.13;;;4.10;99.90;;;;;;5053426;28;20584;-83
2023/03/12 08:30:53;;;;;;;3.83;2.83;;;4.10;99.90;;;;;;5053251;28;20086;-83
2023/03/12 08:33:20;;;;;;;5.30;3.10;;;4.20;99.90;;;;;;5053197;28;20044;-83
2023/03/12 08:35:47;;;;;;;3.57;2.77;;;4.20;99.90;;;;;;5053297;28;20044;-83
2023/03/12 08:38:13;;;;;;;5.00;3.17;;;4.30;99.90;;;;;;5056117;28;20032;-84
2023/03/12 08:40:38;;;;;;;4.50;2.57;;;4.30;99.90;;;;;;5054563;28;20106;-83
2023/03/12 08:43:06;;;;;;;4.53;2.93;;;4.40;99.90;;;;;;5055414;28;20044;-83
2023/03/12 08:45:32;;;;;;;4.50;2.90;;;4.40;99.90;;;;;;5055211;28;20029;-81
2023/03/12 08:47:57;;;;;;;3.77;2.80;;;4.50;99.90;;;;;;5055271;28;20042;-83
2023/03/12 08:50:25;;;;;;;5.43;2.70;;;4.50;99.90;;;;;;5054775;28;20082;-84
2023/03/12 08:52:50;;;;;;;4.20;3.20;;;4.50;99.90;;;;;;5055747;28;20036;-82
2023/03/12 08:55:16;;;;;;;4.10;3.20;;;4.50;99.90;;;;;;5051167;28;20706;-83
2023/03/12 08:57:42;;;;;;;4.50;3.00;;;4.40;99.90;;;;;;5052604;28;20036;-83
2023/03/12 09:00:13;;;;;;;5.03;3.47;;;4.40;99.90;;;;;;5057218;28;20036;-83
2023/03/12 09:02:39;;;;;;;4.47;3.27;;;4.30;99.90;;;;;;5057016;28;20029;-83
2023/03/12 09:05:05;;;;;;;5.13;3.17;;;4.30;99.90;;;;;;5056315;28;20830;-83
2023/03/12 09:07:31;;;;;;;3.17;2.67;;;4.30;99.90;;;;;;5052328;28;20485;-84
2023/03/12 09:09:57;;;;;;;3.67;2.90;;;4.40;99.90;;;;;;5056167;28;20036;-83
2023/03/12 09:12:23;;;;;;;3.47;2.77;;;4.40;99.90;;;;;;5057384;28;20067;-84
2023/03/12 09:14:49;;;;;;;3.37;2.73;;;4.50;99.90;;;;;;5062824;28;20066;-84
2023/03/12 09:17:15;;;;;;;3.10;2.50;;;4.60;99.90;;;;;;5062758;28;20040;-84
2023/03/12 09:19:43;;;;;;;3.13;2.37;;;4.70;99.90;;;;;;5067989;28;20037;-84
2023/03/12 09:22:12;;;;;;;3.20;2.43;;;4.80;99.90;;;;;;5068128;28;20040;-83
2023/03/12 09:24:42;;;;;;;2.83;2.40;;;4.90;99.90;;;;;;5072781;28;20052;-86
2023/03/12 09:27:08;;;;;;;3.40;2.53;;;4.90;99.90;;;;;;5069425;28;20247;-85
2023/03/12 09:29:36;;;;;;;4.80;3.00;;;5.00;99.90;;;;;;5073467;28;20023;-85
2023/03/12 09:32:08;;;;;;;4.90;3.27;;;5.00;99.90;;;;;;5072946;28;20054;-87
2023/03/12 09:34:36;;;;;;;6.60;2.90;;;5.00;99.90;;;;;;5077510;28;20515;-89
2023/03/12 09:37:18;;;;;;;5.23;3.60;;;5.00;99.90;;;;;;5072984;28;20024;-85
2023/03/12 09:39:59;;;;;;;4.57;3.13;;;4.90;99.90;;;;;;5072452;28;20544;-84
2023/03/12 09:42:57;;;;;;;4.60;3.00;;;4.90;99.90;;;;;;5074612;28;20029;-85
2023/03/12 09:45:49;;;;;;;4.90;3.00;;;4.80;99.90;;;;;;5070444;28;20526;-87
2023/03/12 09:48:38;;;;;;;3.47;2.73;;;4.70;99.90;;;;;;5098323;28;20044;-88
2023/03/12 09:51:35;;;;;;;5.07;2.37;;;4.70;99.90;;;;;;5069698;28;20044;-85
2023/03/12 09:54:05;;;;;;;4.53;2.87;;;4.70;99.90;;;;;;5072863;28;20024;-86
2023/03/12 09:56:35;;;;;;;3.90;2.73;;;4.70;99.90;;;;;;5076565;28;20016;-86
2023/03/12 09:59:17;;;;;;;3.10;2.30;;;4.60;99.90;;;;;;5073334;28;20063;-85
2023/03/12 10:02:15;;;;;;;5.60;3.47;;;4.60;99.90;;;;;;5075185;28;20031;-88
2023/03/12 10:04:59;;;;;;;6.57;2.90;;;4.60;99.90;;;;;;5076318;28;20047;-92
2023/03/12 10:07:34;;;;;;;2.90;2.27;;;4.60;99.90;;;;;;5081571;28;20058;-90
2023/03/12 10:10:57;;;;;;;3.92;2.40;;;4.70;99.90;;;;;;5075232;28;20035;-91
2023/03/12 10:15:16;;;;;;;;;;;;;;;;;;;;;
2023/03/12 10:21:28;;;;;;;3.10;2.30;;;4.70;99.90;;;;;;5053234;28;20044;-91
2023/03/12 10:24:19;;;;;;;6.57;2.80;;;4.60;99.90;;;;;;5074912;28;20035;-92
2023/03/12 10:27:26;;;;;;;2.67;2.17;;;4.50;99.90;;;;;;5070019;28;20612;-85
2023/03/12 10:33:55;;;;;;;3.30;2.23;;;4.30;99.90;;;;;;5066052;28;20054;-85
2023/03/12 10:36:48;;;;;;;4.53;2.10;;;4.20;99.90;;;;;;5008573;28;20077;-84
2023/03/12 10:39:59;;;;;;;;;;;;;;;;;;;;;
2023/03/12 10:42:54;;;;;;;;;;;;;;;;;;;;;
2023/03/12 10:45:57;;;;;;;3.30;2.10;;;4.10;99.90;;;;;;5064466;28;20025;-83
2023/03/12 10:48:25;;;;;;;3.63;2.40;;;4.10;99.90;;;;;;5036415;28;20079;-84
2023/03/12 10:51:39;;;;;;;3.27;2.40;;;4.10;99.90;;;;;;5066412;28;20453;-85
2023/03/12 10:54:50;;;;;;;;;;;;;;;;;;;;;
2023/03/12 10:58:09;;;;;;;2.83;2.30;;;4.10;99.90;;;;;;5066426;28;20396;-83
2023/03/12 11:00:34;;;;;;;6.60;3.10;;;4.00;99.90;;;;;;5060501;28;20070;-84
2023/03/12 11:03:19;;;;;;;5.83;2.93;;;4.10;99.90;;;;;;5065042;28;20024;-84
2023/03/12 11:05:51;;;;;;;5.80;2.87;;;4.20;99.90;;;;;;5065995;28;20115;-85
2023/03/12 11:08:26;;;;;;;4.20;2.37;;;4.30;99.90;;;;;;5066785;28;20024;-86
2023/03/12 11:11:00;;;;;;;3.13;2.60;;;4.50;99.90;;;;;;5099263;27;20168;-86
2023/03/12 11:13:55;;;;;;;3.97;2.70;;;4.50;99.90;;;;;;5065708;28;20032;-87
2023/03/12 11:16:27;;;;;;;3.30;2.30;;;4.60;99.90;;;;;;5099472;27;20024;-86
2023/03/12 11:19:04;;;;;;;3.70;2.10;;;4.70;99.90;;;;;;5062367;28;20041;-85
2023/03/12 11:21:39;;;;;;;3.17;2.37;;;4.70;99.90;;;;;;5097323;27;20111;-87
2023/03/12 11:24:10;;;;;;;3.47;2.33;;;4.70;99.90;;;;;;5067082;28;20028;-88
2023/03/12 11:27:44;;;;;;;;;;;;;;;;;;;;;
2023/03/12 11:30:43;;;;;;;2.77;2.27;;;4.90;99.90;;;;;;4973646;28;20026;-89
2023/03/12 11:33:26;;;;;;;5.47;1.90;;;4.90;99.90;;;;;;5062373;28;20062;-87
2023/03/12 11:36:19;;;;;;;2.77;2.00;;;5.10;99.90;;;;;;5102107;27;20170;-88
2023/03/12 11:39:27;;;;;;;3.90;1.90;;;5.10;99.90;;;;;;5066945;28;20035;-88
2023/03/12 11:42:36;;;;;;;2.73;1.83;;;5.20;99.90;;;;;;5099712;27;20025;-91
2023/03/12 11:45:26;;;;;;;2.67;2.30;;;5.20;99.90;;;;;;5065681;28;20036;-83
2023/03/12 11:48:17;;;;;;;4.53;2.00;;;5.20;99.90;;;;;;5065792;28;20041;-85
2023/03/12 11:51:28;;;;;;;2.87;2.20;;;5.30;99.90;;;;;;5068132;28;20074;-83
2023/03/12 11:54:45;;;;;;;4.27;2.27;;;5.30;99.90;;;;;;5074451;28;20040;-83
2023/03/12 11:57:28;;;;;;;;;;;5.40;99.90;;;;;;5071284;28;20028;-82
2023/03/12 12:00:21;;;;;;;;;;;;;;;;;;;;;
2023/03/12 12:03:36;;;;;;;5.53;2.23;;;5.60;99.90;;;;;;5067293;28;20657;-82
2023/03/12 12:06:36;;;;;;;3.13;2.13;;;5.70;99.90;;;;;;5040605;28;20037;-82
2023/03/12 12:09:51;;;;;;;;;;;;;;;;;;;;;
2023/03/12 12:19:23;;;;;;;3.40;2.50;;;6.00;99.90;;;;;;5051910;28;20432;-82
2023/03/12 12:22:13;;;;;;;5.13;2.80;;;6.00;99.90;;;;;;5060186;28;20077;-82
2023/03/12 12:25:05;;;;;;;5.57;3.90;;;6.10;99.90;;;;;;5077102;28;20050;-80
2023/03/12 12:28:15;;;;;;;4.90;3.30;;;6.10;99.90;;;;;;5093162;28;20515;-81
2023/03/12 12:30:59;;;;;;;4.37;2.80;;;6.20;99.90;;;;;;5072517;28;20099;-82
2023/03/12 12:33:51;;;;;;;6.00;2.83;;;6.20;99.90;;;;;;5092862;28;20091;-83
2023/03/12 12:36:17;;;;;;;3.80;2.93;;;6.30;99.90;;;;;;5075449;28;20114;-81
2023/03/12 12:38:50;;;;;;;5.63;2.97;;;6.30;99.90;;;;;;5092843;28;20070;-81
2023/03/12 12:41:23;;;;;;;5.77;3.73;;;6.30;99.90;;;;;;5093082;28;20044;-81
2023/03/12 12:44:03;;;;;;;4.37;3.30;;;6.40;99.90;;;;;;5093384;28;20352;-82
2023/03/12 12:46:36;;;;;;;5.07;3.60;;;6.40;99.90;;;;;;5093023;28;20056;-81
2023/03/12 12:49:27;;;;;;;5.40;3.40;;;6.40;99.90;;;;;;5092203;28;20034;-82
2023/03/12 12:52:02;;;;;;;5.17;3.63;;;6.40;99.90;;;;;;5092854;28;20023;-81
2023/03/12 12:54:46;;;;;;;4.50;3.67;;;6.50;99.90;;;;;;5092995;28;20028;-82
2023/03/12 12:57:27;;;;;;;5.80;3.63;;;6.60;99.90;;;;;;5093045;28;20036;-82
2023/03/12 12:59:56;;;;;;;6.97;3.63;;;6.60;99.90;;;;;;5092866;28;20066;-81
2023/03/12 13:02:25;;;;;;;7.10;4.37;;;6.60;99.90;;;;;;5092612;28;20474;-82
2023/03/12 13:04:55;;;;;;;8.60;4.23;;;6.70;99.90;;;;;;5093660;28;20032;-82
2023/03/12 13:07:21;;;;;;;6.63;4.60;;;6.80;99.90;;;;;;5092518;28;20053;-81
2023/03/12 13:09:49;;;;;;;8.10;5.23;;;6.90;99.90;;;;;;5092722;28;20120;-82
2023/03/12 13:12:19;;;;;;;6.77;4.30;;;7.00;99.90;;;;;;5092487;28;20154;-82
2023/03/12 13:14:45;;;;;;;9.17;5.13;;;7.10;99.90;;;;;;5092105;28;20149;-83
2023/03/12 13:17:50;;;;;;;10.17;5.33;;;7.20;99.90;;;;;;5092578;28;20505;-85
2023/03/12 13:20:19;;;;;;;8.23;5.43;;;7.40;99.90;;;;;;5092999;28;20036;-82
2023/03/12 13:23:03;;;;;;;7.37;4.57;;;7.60;99.90;;;;;;5092752;28;20039;-83
2023/03/12 13:25:47;;;;;;;8.87;5.00;;;7.70;99.90;;;;;;5092571;28;20024;-80
2023/03/12 13:28:36;;;;;;;7.87;4.87;;;7.70;99.90;;;;;;5092514;28;20059;-81
2023/03/12 13:31:27;;;;;;;6.70;4.57;;;7.90;99.90;;;;;;5092959;28;20042;-81
2023/03/12 13:34:15;;;;;;;8.43;5.17;;;8.30;99.90;;;;;;5091072;28;20485;-81
2023/03/12 13:36:44;;;;;;;7.00;4.00;;;8.50;99.90;;;;;;5094167;28;20036;-81
2023/03/12 13:39:16;;;;;;;5.57;3.87;;;8.70;99.90;;;;;;5076688;28;20043;-82
2023/03/12 13:41:54;;;;;;;5.17;3.50;;;8.80;99.90;;;;;;5093529;28;20024;-82